createdAt,value
2023-02-24T00:02:22.835Z,97421.56
2023-02-24T00:05:18.127Z,97418.34
2023-02-24T00:08:42.681Z,97431.00
2023-02-24T00:11:28.738Z,97428.53
2023-02-24T00:14:07.270Z,97424.75
2023-02-24T00:20:36.227Z,97433.25
2023-02-24T00:23:11.290Z,97437.81
2023-02-24T00:29:21.069Z,97415.03
2023-02-24T00:32:28.571Z,97416.41
2023-02-24T00:35:16.895Z,97412.38
2023-02-24T00:38:08.952Z,97409.03
2023-02-24T00:41:06.048Z,97396.81
2023-02-24T00:46:33.201Z,97389.81
2023-02-24T00:49:30.610Z,97386.00
2023-02-24T00:52:09.500Z,97379.13
2023-02-24T00:54:54.638Z,97380.16
2023-02-24T00:57:36.101Z,97385.34
2023-02-24T01:03:24.097Z,97372.00
2023-02-24T01:06:04.243Z,97368.78
2023-02-24T01:09:01.330Z,97368.88
2023-02-24T01:11:59.937Z,97363.91
2023-02-24T01:14:52.583Z,97358.59
2023-02-24T01:17:34.703Z,97357.56
2023-02-24T01:20:40.244Z,97349.47
2023-02-24T01:23:14.856Z,97344.75
2023-02-24T01:25:57.137Z,97331.19
2023-02-24T01:28:54.930Z,97339.25
2023-02-24T01:34:48.070Z,97332.50
2023-02-24T01:44:02.323Z,97320.69
2023-02-24T01:46:47.960Z,97331.78
2023-02-24T01:50:08.906Z,97323.03
2023-02-24T01:53:11.029Z,97338.53
2023-02-24T01:56:18.220Z,97345.59
2023-02-24T01:59:09.812Z,97346.81
2023-02-24T02:05:03.067Z,97330.63
2023-02-24T02:07:55.609Z,97335.78
2023-02-24T02:10:40.673Z,97326.59
2023-02-24T02:13:24.835Z,97319.34
2023-02-24T02:17:14.129Z,97319.75
2023-02-24T02:20:44.987Z,97310.81
2023-02-24T02:28:05.805Z,97315.50
2023-02-24T02:31:16.765Z,97309.97
2023-02-24T02:34:42.334Z,97304.78
2023-02-24T02:37:38.294Z,97307.97
2023-02-24T02:40:53.795Z,97312.75
2023-02-24T02:44:12.115Z,97312.91
2023-02-24T02:46:48.842Z,97309.53
2023-02-24T02:49:34.456Z,97311.09
2023-02-24T02:52:10.586Z,97305.59
2023-02-24T02:54:46.168Z,97301.84
2023-02-24T02:57:28.245Z,97301.09
2023-02-24T03:00:30.136Z,97306.81
2023-02-24T03:03:07.399Z,97310.56
2023-02-24T03:05:49.435Z,97296.97
2023-02-24T03:08:26.025Z,97301.09
2023-02-24T03:11:00.527Z,97296.78
2023-02-24T03:13:34.215Z,97302.88
2023-02-24T03:16:04.396Z,97298.38
2023-02-24T03:19:04.102Z,97299.03
2023-02-24T03:22:16.745Z,97290.34
2023-02-24T03:24:45.828Z,97294.63
2023-02-24T03:27:31.533Z,97300.88
2023-02-24T03:30:16.262Z,97299.03
2023-02-24T03:33:02.535Z,97310.72
2023-02-24T03:35:39.245Z,97298.53
2023-02-24T03:38:10.366Z,97296.16
2023-02-24T03:40:43.611Z,97302.38
2023-02-24T03:43:25.707Z,97306.13
2023-02-24T03:45:54.994Z,97306.34
2023-02-24T03:48:24.639Z,97314.25
2023-02-24T03:50:53.288Z,97317.91
2023-02-24T03:53:51.965Z,97320.97
2023-02-24T03:56:57.938Z,97336.66
2023-02-24T03:59:56.306Z,97334.78
2023-02-24T04:02:33.734Z,97316.47
2023-02-24T04:05:12.279Z,97309.00
2023-02-24T04:08:04.427Z,97315.19
2023-02-24T04:14:50.333Z,97330.63
2023-02-24T04:21:23.000Z,97304.34
2023-02-24T04:23:51.023Z,97303.13
2023-02-24T04:26:21.367Z,97304.81
2023-02-24T04:28:48.848Z,97318.88
2023-02-24T04:31:20.188Z,97313.78
2023-02-24T04:33:50.560Z,97303.50
2023-02-24T04:36:21.933Z,97299.50
2023-02-24T04:38:49.849Z,97294.78
2023-02-24T04:41:21.841Z,97294.22
2023-02-24T04:43:52.653Z,97284.16
2023-02-24T04:46:21.049Z,97281.53
2023-02-24T04:48:48.195Z,97278.53
2023-02-24T04:51:15.328Z,97281.59
2023-02-24T04:53:42.466Z,97278.06
2023-02-24T04:56:09.596Z,97279.81
2023-02-24T04:58:41.351Z,97271.91
2023-02-24T05:01:11.227Z,97272.59
2023-02-24T05:03:42.511Z,97267.06
2023-02-24T05:06:17.989Z,97269.38
2023-02-24T05:08:46.441Z,97275.59
2023-02-24T05:11:16.674Z,97271.97
2023-02-24T05:13:48.256Z,97268.28
2023-02-24T05:16:20.745Z,97270.81
2023-02-24T05:18:47.937Z,97274.41
2023-02-24T05:21:35.779Z,97268.84
2023-02-24T05:24:07.138Z,97274.34
2023-02-24T05:26:38.424Z,97268.16
2023-02-24T05:29:06.983Z,97273.00
2023-02-24T05:31:34.686Z,97267.53
2023-02-24T05:34:06.196Z,97264.56
2023-02-24T05:36:46.057Z,97261.94
2023-02-24T05:39:19.378Z,97255.94
2023-02-24T05:41:49.817Z,97255.34
2023-02-24T05:44:22.961Z,97255.81
2023-02-24T05:46:56.821Z,97253.22
2023-02-24T05:49:29.398Z,97256.28
2023-02-24T05:54:15.476Z,97264.56
2023-02-24T05:56:43.906Z,97255.41
2023-02-24T05:59:13.324Z,97261.97
2023-02-24T06:01:42.089Z,97256.44
2023-02-24T06:04:10.717Z,97270.44
2023-02-24T06:06:42.527Z,97274.66
2023-02-24T06:09:13.305Z,97268.69
2023-02-24T06:11:43.588Z,97271.88
2023-02-24T06:14:13.009Z,97270.47
2023-02-24T06:16:43.569Z,97271.44
2023-02-24T06:19:13.045Z,97280.47
2023-02-24T06:21:42.364Z,97288.81
2023-02-24T06:24:18.718Z,97287.34
2023-02-24T06:26:47.447Z,97285.38
2023-02-24T06:29:18.489Z,97295.84
2023-02-24T06:31:45.863Z,97290.44
2023-02-24T06:34:18.548Z,97290.41
2023-02-24T06:36:47.122Z,97289.91
2023-02-24T06:39:14.788Z,97284.41
2023-02-24T06:41:42.749Z,97295.09
2023-02-24T06:44:09.949Z,97292.72
2023-02-24T06:46:37.678Z,97294.69
2023-02-24T06:49:05.052Z,97290.72
2023-02-24T06:51:32.424Z,97280.53
2023-02-24T06:54:00.124Z,97292.03
2023-02-24T06:56:29.313Z,97290.31
2023-02-24T06:58:57.301Z,97284.34
2023-02-24T07:01:29.252Z,97295.50
2023-02-24T07:04:17.904Z,97294.19
2023-02-24T07:06:57.655Z,97294.97
2023-02-24T07:09:27.433Z,97287.09
2023-02-24T07:11:56.815Z,97284.22
2023-02-24T07:14:30.745Z,97286.00
2023-02-24T07:16:59.829Z,97289.34
2023-02-24T07:19:32.555Z,97289.34
2023-02-24T07:22:03.844Z,97285.47
2023-02-24T07:24:39.953Z,97288.31
2023-02-24T07:27:12.748Z,97289.97
2023-02-24T07:29:40.277Z,97291.84
2023-02-24T07:32:09.533Z,97293.94
2023-02-24T07:34:40.661Z,97287.44
2023-02-24T07:37:10.070Z,97300.59
2023-02-24T07:39:39.740Z,97300.47
2023-02-24T07:42:13.489Z,97311.53
2023-02-24T07:44:40.699Z,97301.41
2023-02-24T07:47:08.547Z,97294.50
2023-02-24T07:49:37.461Z,97306.88
2023-02-24T07:52:08.315Z,97334.28
2023-02-24T07:54:37.554Z,97352.56
2023-02-24T07:57:06.794Z,97348.69
2023-02-24T07:59:38.345Z,97324.81
2023-02-24T08:02:08.239Z,97310.47
2023-02-24T08:04:42.040Z,97299.59
2023-02-24T08:07:14.519Z,97311.56
2023-02-24T08:09:45.436Z,97320.31
2023-02-24T08:12:18.333Z,97334.47
2023-02-24T08:14:51.258Z,97340.34
2023-02-24T08:17:26.882Z,97347.22
2023-02-24T08:20:16.110Z,97340.03
2023-02-24T08:22:47.237Z,97329.31
2023-02-24T08:25:19.708Z,97340.50
2023-02-24T08:28:12.490Z,97349.66
2023-02-24T08:30:46.315Z,97337.31
2023-02-24T08:33:21.149Z,97327.22
2023-02-24T08:36:02.323Z,97330.13
2023-02-24T08:38:44.998Z,97329.19
2023-02-24T08:41:20.230Z,97322.72
2023-02-24T08:43:48.978Z,97321.41
2023-02-24T08:46:26.673Z,97312.38
2023-02-24T08:49:09.175Z,97312.75
2023-02-24T08:51:43.920Z,97309.25
2023-02-24T08:54:18.928Z,97312.53
2023-02-24T08:56:56.317Z,97333.91
2023-02-24T08:59:38.616Z,97331.00
2023-02-24T09:02:23.143Z,97331.25
2023-02-24T09:05:14.383Z,97320.94
2023-02-24T09:07:42.657Z,97317.97
2023-02-24T09:10:18.315Z,97313.06
2023-02-24T09:12:46.817Z,97299.41
2023-02-24T09:15:15.778Z,97297.38
2023-02-24T09:17:45.198Z,97292.78
2023-02-24T09:20:27.242Z,97294.00
2023-02-24T09:23:07.814Z,97287.44
2023-02-24T09:25:49.707Z,97314.19
2023-02-24T09:31:41.068Z,97304.97
2023-02-24T09:34:18.738Z,97294.63
2023-02-24T09:37:01.797Z,97313.38
2023-02-24T09:39:53.720Z,97316.25
2023-02-24T09:42:24.927Z,97313.75
2023-02-24T09:44:56.642Z,97294.56
2023-02-24T09:47:40.158Z,97279.47
2023-02-24T09:50:51.254Z,97284.09
2023-02-24T09:53:17.662Z,97282.59
2023-02-24T09:56:10.554Z,97288.25
2023-02-24T09:58:50.465Z,97284.25
2023-02-24T10:01:43.231Z,97287.56
2023-02-24T10:04:27.540Z,97281.16
2023-02-24T10:07:03.179Z,97286.03
2023-02-24T10:09:49.961Z,97284.16
2023-02-24T10:12:17.472Z,97275.78
2023-02-24T10:15:20.663Z,97269.34
2023-02-24T10:17:56.747Z,97265.00
2023-02-24T10:20:46.048Z,97286.31
2023-02-24T10:24:05.951Z,97285.19
2023-02-24T10:27:24.049Z,97267.53
2023-02-24T10:30:11.009Z,97260.59
2023-02-24T10:32:54.783Z,97272.53
2023-02-24T10:35:26.326Z,97261.38
2023-02-24T10:37:59.089Z,97259.84
2023-02-24T10:40:44.942Z,97263.09
2023-02-24T10:43:30.154Z,97270.13
2023-02-24T10:46:07.019Z,97269.19
2023-02-24T10:48:44.278Z,97271.63
2023-02-24T10:51:30.401Z,97274.09
2023-02-24T10:54:34.488Z,97257.00
2023-02-24T10:57:10.897Z,97245.63
2023-02-24T11:00:16.417Z,97229.25
2023-02-24T11:03:07.100Z,97214.03
2023-02-24T11:06:07.125Z,97215.06
2023-02-24T11:08:54.349Z,97213.00
2023-02-24T11:11:54.580Z,97222.44
2023-02-24T11:14:40.700Z,97207.19
2023-02-24T11:17:27.806Z,97203.00
2023-02-24T11:20:15.826Z,97215.91
2023-02-24T11:22:49.254Z,97217.53
2023-02-24T11:25:27.375Z,97229.09
2023-02-24T11:27:58.682Z,97222.13
2023-02-24T11:30:37.675Z,97214.16
2023-02-24T11:33:07.498Z,97206.63
2023-02-24T11:36:07.508Z,97216.56
2023-02-24T11:38:50.385Z,97222.97
2023-02-24T11:41:42.915Z,97217.03
2023-02-24T11:44:23.889Z,97215.34
2023-02-24T11:46:59.594Z,97211.34
2023-02-24T11:49:35.204Z,97186.91
2023-02-24T11:52:09.472Z,97166.53
2023-02-24T11:54:45.017Z,97174.19
2023-02-24T11:57:27.013Z,97176.66
2023-02-24T12:00:23.531Z,97176.75
2023-02-24T12:03:30.958Z,97171.31
2023-02-24T12:06:27.637Z,97168.34
2023-02-24T12:09:09.375Z,97173.25
2023-02-24T12:11:57.099Z,97161.03
2023-02-24T12:15:25.821Z,97152.59
2023-02-24T12:18:06.296Z,97148.22
2023-02-24T12:21:22.083Z,97147.81
2023-02-24T12:23:55.641Z,97140.78
2023-02-24T12:26:40.035Z,97140.66
2023-02-24T12:30:06.630Z,97136.50
2023-02-24T12:32:36.797Z,97139.91
2023-02-24T12:35:44.819Z,97136.13
2023-02-24T12:38:40.978Z,97126.31
2023-02-24T12:41:37.307Z,97102.72
2023-02-24T12:44:48.156Z,97118.53
2023-02-24T12:47:31.637Z,97099.84
2023-02-24T12:50:24.338Z,97094.72
2023-02-24T12:53:28.616Z,97095.06
2023-02-24T12:56:30.533Z,97079.63
2023-02-24T12:59:05.651Z,97064.91
2023-02-24T13:02:13.593Z,97074.97
2023-02-24T13:04:54.287Z,97082.34
2023-02-24T13:07:39.825Z,97077.72
2023-02-24T13:10:07.103Z,97068.03
2023-02-24T13:12:47.656Z,97059.69
2023-02-24T13:15:33.146Z,97052.13
2023-02-24T13:18:00.508Z,97039.91
2023-02-24T13:20:34.725Z,97043.16
2023-02-24T13:23:05.133Z,97036.78
2023-02-24T13:25:37.769Z,97026.22
2023-02-24T13:28:33.344Z,97014.56
2023-02-24T13:31:11.602Z,97017.53
2023-02-24T13:33:43.744Z,97019.72
2023-02-24T13:36:21.771Z,97027.03
2023-02-24T13:39:06.360Z,97028.94
2023-02-24T13:41:33.394Z,97017.44
2023-02-24T13:44:05.020Z,97027.47
2023-02-24T13:47:06.986Z,97028.28
2023-02-24T13:50:03.266Z,97021.03
2023-02-24T13:53:13.908Z,97031.09
2023-02-24T13:56:20.216Z,97026.53
2023-02-24T13:59:29.301Z,97020.13
2023-02-24T14:02:02.875Z,97009.94
2023-02-24T14:04:39.585Z,97005.75
2023-02-24T14:07:18.157Z,97015.91
2023-02-24T14:09:52.802Z,97007.69
2023-02-24T14:12:27.100Z,97006.31
2023-02-24T14:14:55.674Z,97008.59
2023-02-24T14:17:36.739Z,97007.59
2023-02-24T14:20:10.028Z,97007.94
2023-02-24T14:22:50.356Z,96995.00
2023-02-24T14:25:18.275Z,96995.59
2023-02-24T14:27:49.972Z,97000.28
2023-02-24T14:30:27.126Z,96986.06
2023-02-24T14:32:55.781Z,96995.38
2023-02-24T14:35:42.591Z,96987.28
2023-02-24T14:38:39.821Z,96976.56
2023-02-24T14:41:22.735Z,96987.09
2023-02-24T14:43:58.444Z,96983.97
2023-02-24T14:46:26.129Z,96973.56
2023-02-24T14:48:56.911Z,96973.00
2023-02-24T14:51:35.838Z,96970.78
2023-02-24T14:54:11.925Z,96974.09
2023-02-24T14:56:41.583Z,96971.22
2023-02-24T14:59:38.488Z,96961.59
2023-02-24T15:02:19.225Z,96957.88
2023-02-24T15:04:48.511Z,96948.75
2023-02-24T15:07:23.904Z,96948.53
2023-02-24T15:09:53.865Z,96942.19
2023-02-24T15:12:32.277Z,96936.03
2023-02-24T15:15:21.502Z,96913.19
2023-02-24T15:17:56.989Z,96910.66
2023-02-24T15:20:30.071Z,96907.75
2023-02-24T15:22:58.171Z,96892.81
2023-02-24T15:25:43.755Z,96886.59
2023-02-24T15:28:33.522Z,96902.75
2023-02-24T15:31:21.608Z,96891.03
2023-02-24T15:34:00.287Z,96892.81
2023-02-24T15:36:34.297Z,96889.34
2023-02-24T15:39:10.720Z,96878.91
2023-02-24T15:41:48.922Z,96897.75
2023-02-24T15:44:57.608Z,96887.84
2023-02-24T15:47:31.664Z,96895.44
2023-02-24T15:49:59.753Z,96904.72
2023-02-24T15:52:29.921Z,96902.03
2023-02-24T15:54:59.580Z,96901.09
2023-02-24T15:57:30.228Z,96906.09
2023-02-24T15:59:57.626Z,96905.41
2023-02-24T16:02:25.546Z,96920.59
2023-02-24T16:04:53.028Z,96910.00
2023-02-24T16:07:31.053Z,96926.47
2023-02-24T16:10:01.192Z,96923.00
2023-02-24T16:12:35.908Z,96918.56
2023-02-24T16:15:07.009Z,96914.16
2023-02-24T16:17:41.368Z,96916.81
2023-02-24T16:20:31.782Z,96928.66
2023-02-24T16:23:05.080Z,96945.81
2023-02-24T16:25:44.285Z,96929.13
2023-02-24T16:28:19.132Z,96918.13
2023-02-24T16:30:47.421Z,96926.38
2023-02-24T16:33:18.577Z,96947.13
2023-02-24T16:35:46.184Z,96960.94
2023-02-24T16:38:17.998Z,96962.31
2023-02-24T16:40:48.059Z,96960.25
2023-02-24T16:43:16.136Z,96955.03
2023-02-24T16:45:45.837Z,96953.63
2023-02-24T16:48:37.674Z,96961.25
2023-02-24T16:56:50.273Z,96973.41
2023-02-24T16:59:17.452Z,96979.75
2023-02-24T17:01:44.749Z,96977.13
2023-02-24T17:04:13.772Z,96968.56
2023-02-24T17:06:41.999Z,96963.03
2023-02-24T17:09:09.202Z,96962.78
2023-02-24T17:11:36.353Z,96965.78
2023-02-24T17:14:03.533Z,96975.75
2023-02-24T17:16:30.808Z,96967.16
2023-02-24T17:18:58.063Z,96964.50
2023-02-24T17:21:25.483Z,96961.25
2023-02-24T17:23:52.825Z,96973.66
2023-02-24T17:26:31.864Z,96973.88
2023-02-24T17:28:59.002Z,96966.34
2023-02-24T17:31:31.714Z,96963.31
2023-02-24T17:33:59.224Z,96968.84
2023-02-24T17:36:57.520Z,96953.88
2023-02-24T17:39:24.716Z,96957.38
2023-02-24T17:41:51.870Z,96962.13
2023-02-24T17:44:18.994Z,96970.03
2023-02-24T17:46:47.602Z,96961.16
2023-02-24T17:50:30.003Z,96953.72
2023-02-24T17:52:57.766Z,96938.03
2023-02-24T17:56:12.904Z,96942.69
2023-02-24T17:58:41.149Z,96935.06
2023-02-24T18:01:08.470Z,96927.25
2023-02-24T18:03:37.875Z,96930.28
2023-02-24T18:06:08.070Z,96932.31
2023-02-24T18:08:37.317Z,96930.66
2023-02-24T18:11:07.179Z,96947.72
2023-02-24T18:13:35.023Z,96950.25
2023-02-24T18:16:07.638Z,96946.59
2023-02-24T18:18:34.801Z,96946.88
2023-02-24T18:21:05.520Z,96948.28
2023-02-24T18:23:33.644Z,96949.97
2023-02-24T18:26:06.865Z,96955.44
2023-02-24T18:28:34.948Z,96950.50
2023-02-24T18:31:09.611Z,96949.50
2023-02-24T18:33:37.253Z,96947.78
2023-02-24T18:36:05.046Z,96953.88
2023-02-24T18:38:32.325Z,96940.72
2023-02-24T18:41:01.148Z,96939.19
2023-02-24T18:43:32.830Z,96934.81
2023-02-24T18:46:08.739Z,96942.84
2023-02-24T18:48:36.098Z,96947.97
2023-02-24T18:51:04.121Z,96948.31
2023-02-24T18:53:39.454Z,96945.63
2023-02-24T18:56:10.914Z,96941.88
2023-02-24T18:58:40.120Z,96944.88
2023-02-24T19:02:02.272Z,96941.66
2023-02-24T19:04:40.178Z,96944.44
2023-02-24T19:07:08.770Z,96955.00
2023-02-24T19:09:35.924Z,96965.78
2023-02-24T19:12:03.213Z,96969.88
2023-02-24T19:14:32.276Z,96956.78
2023-02-24T19:17:01.680Z,96950.47
2023-02-24T19:19:30.147Z,96939.22
2023-02-24T19:22:01.672Z,96921.38
2023-02-24T19:24:31.487Z,96914.63
2023-02-24T19:27:00.243Z,96897.75
2023-02-24T19:29:29.549Z,96884.41
2023-02-24T19:31:59.235Z,96870.41
2023-02-24T19:34:28.918Z,96856.16
2023-02-24T19:36:58.663Z,96848.47
2023-02-24T19:39:28.214Z,96845.03
2023-02-24T19:41:57.740Z,96829.69
2023-02-24T19:44:27.547Z,96818.47
2023-02-24T19:46:57.866Z,96822.50
2023-02-24T19:49:27.804Z,96818.06
2023-02-24T19:51:58.487Z,96815.78
2023-02-24T19:54:30.302Z,96815.56
2023-02-24T19:57:00.622Z,96806.84
2023-02-24T19:59:30.664Z,96805.56
2023-02-24T20:01:59.918Z,96790.78
2023-02-24T20:04:29.624Z,96798.97
2023-02-24T20:06:58.839Z,96800.56
2023-02-24T20:09:29.334Z,96806.88
2023-02-24T20:12:01.420Z,96808.56
2023-02-24T20:14:32.563Z,96817.59
2023-02-24T20:17:02.502Z,96812.81
2023-02-24T20:19:36.032Z,96808.72
2023-02-24T20:22:04.699Z,96812.91
2023-02-24T20:24:38.209Z,96809.13
2023-02-24T20:27:08.041Z,96805.34
2023-02-24T20:29:38.111Z,96804.06
2023-02-24T20:32:07.814Z,96805.38
2023-02-24T20:34:39.703Z,96807.25
2023-02-24T20:37:08.756Z,96788.16
2023-02-24T20:39:38.851Z,96777.94
2023-02-24T20:42:08.910Z,96773.91
2023-02-24T20:44:39.654Z,96782.09
2023-02-24T20:47:09.958Z,96773.19
2023-02-24T20:49:40.144Z,96781.41
2023-02-24T20:52:09.431Z,96769.47
2023-02-24T20:54:39.252Z,96769.31
2023-02-24T20:57:09.467Z,96759.84
2023-02-24T20:59:40.242Z,96744.88
2023-02-24T21:02:11.320Z,96759.22
2023-02-24T21:04:39.715Z,96753.69
2023-02-24T21:07:06.980Z,96761.19
2023-02-24T21:09:37.391Z,96759.34
2023-02-24T21:12:05.595Z,96756.94
2023-02-24T21:14:32.950Z,96770.16
2023-02-24T21:17:00.406Z,96794.50
2023-02-24T21:19:27.708Z,96794.16
2023-02-24T21:21:54.921Z,96785.97
2023-02-24T21:24:23.098Z,96826.75
2023-02-24T21:26:50.346Z,96859.91
2023-02-24T21:29:17.549Z,96892.16
2023-02-24T21:31:44.985Z,96881.44
2023-02-24T21:34:12.498Z,96848.53
2023-02-24T21:36:40.041Z,96819.00
2023-02-24T21:39:07.366Z,96779.25
2023-02-24T21:41:35.886Z,96753.75
2023-02-24T21:44:04.052Z,96753.28
2023-02-24T21:46:31.303Z,96746.59
2023-02-24T21:48:59.661Z,96736.03
2023-02-24T21:51:28.179Z,96743.00
2023-02-24T21:53:57.179Z,96747.06
2023-02-24T21:56:28.544Z,96749.44
2023-02-24T21:59:03.746Z,96734.28
2023-02-24T22:01:41.749Z,96716.69
2023-02-24T22:04:13.114Z,96694.56
2023-02-24T22:06:42.624Z,96687.53
2023-02-24T22:09:12.329Z,96680.84
2023-02-24T22:11:41.732Z,96697.81
2023-02-24T22:14:11.692Z,96691.34
2023-02-24T22:16:39.919Z,96689.25
2023-02-24T22:19:07.593Z,96686.53
2023-02-24T22:21:35.256Z,96688.75
2023-02-24T22:24:04.016Z,96691.13
2023-02-24T22:26:32.551Z,96686.91
2023-02-24T22:29:01.037Z,96696.56
2023-02-24T22:31:31.800Z,96689.72
2023-02-24T22:34:00.052Z,96699.09
2023-02-24T22:36:34.227Z,96704.56
2023-02-24T22:39:03.879Z,96690.44
2023-02-24T22:41:35.921Z,96684.53
2023-02-24T22:44:05.752Z,96692.59
2023-02-24T22:46:38.246Z,96669.31
2023-02-24T22:49:06.586Z,96661.19
2023-02-24T22:51:33.942Z,96652.72
2023-02-24T22:54:01.308Z,96647.47
2023-02-24T22:56:29.805Z,96638.34
2023-02-24T22:58:58.944Z,96647.09
2023-02-24T23:01:33.007Z,96639.66
2023-02-24T23:04:02.947Z,96631.31
2023-02-24T23:06:31.590Z,96645.44
2023-02-24T23:09:00.818Z,96647.81
2023-02-24T23:11:34.194Z,96637.50
2023-02-24T23:14:06.199Z,96638.19
2023-02-24T23:16:36.232Z,96639.88
2023-02-24T23:19:17.299Z,96637.78
2023-02-24T23:21:49.890Z,96645.06
2023-02-24T23:24:19.940Z,96652.94
2023-02-24T23:26:54.381Z,96640.91
2023-02-24T23:29:23.155Z,96642.19
2023-02-24T23:31:52.479Z,96635.47
2023-02-24T23:34:19.841Z,96642.22
2023-02-24T23:36:48.356Z,96650.16
2023-02-24T23:39:21.499Z,96639.72
2023-02-24T23:41:49.561Z,96650.03
2023-02-24T23:44:16.657Z,96659.88
2023-02-24T23:46:44.050Z,96651.06
2023-02-24T23:49:11.682Z,96642.75
2023-02-24T23:51:47.981Z,96647.94
2023-02-24T23:54:18.221Z,96638.84
2023-02-24T23:56:46.643Z,96632.78
2023-02-24T23:59:14.680Z,96634.69
